sensor_id;sensor_type;location;lat;lon;timestamp;temperature;humidity
71206;SHT31;58935;54.498;18.544;2024-01-27T00:02:00;5.38;79.87
71206;SHT31;58935;54.498;18.544;2024-01-27T00:04:26;5.34;80.19
71206;SHT31;58935;54.498;18.544;2024-01-27T00:06:51;5.32;80.58
71206;SHT31;58935;54.498;18.544;2024-01-27T00:09:17;5.29;81.05
71206;SHT31;58935;54.498;18.544;2024-01-27T00:11:42;5.24;81.38
71206;SHT31;58935;54.498;18.544;2024-01-27T00:14:08;5.20;81.62
71206;SHT31;58935;54.498;18.544;2024-01-27T00:16:33;5.17;81.56
71206;SHT31;58935;54.498;18.544;2024-01-27T00:18:59;5.15;81.63
71206;SHT31;58935;54.498;18.544;2024-01-27T00:21:24;5.14;81.74
71206;SHT31;58935;54.498;18.544;2024-01-27T00:23:52;5.12;82.07
71206;SHT31;58935;54.498;18.544;2024-01-27T00:26:18;5.09;82.31
71206;SHT31;58935;54.498;18.544;2024-01-27T00:28:43;5.04;82.47
71206;SHT31;58935;54.498;18.544;2024-01-27T00:31:11;5.02;82.59
71206;SHT31;58935;54.498;18.544;2024-01-27T00:33:37;4.99;82.66
71206;SHT31;58935;54.498;18.544;2024-01-27T00:36:05;4.95;82.81
71206;SHT31;58935;54.498;18.544;2024-01-27T00:38:30;4.92;82.99
71206;SHT31;58935;54.498;18.544;2024-01-27T00:40:56;4.89;83.35
71206;SHT31;58935;54.498;18.544;2024-01-27T00:43:21;4.86;83.37
71206;SHT31;58935;54.498;18.544;2024-01-27T00:45:49;4.83;83.64
71206;SHT31;58935;54.498;18.544;2024-01-27T00:48:14;4.79;83.78
71206;SHT31;58935;54.498;18.544;2024-01-27T00:50:40;4.75;83.87
71206;SHT31;58935;54.498;18.544;2024-01-27T00:53:06;4.71;83.90
71206;SHT31;58935;54.498;18.544;2024-01-27T00:55:31;4.70;84.06
71206;SHT31;58935;54.498;18.544;2024-01-27T00:57:56;4.68;84.09
71206;SHT31;58935;54.498;18.544;2024-01-27T01:00:22;4.66;84.19
71206;SHT31;58935;54.498;18.544;2024-01-27T01:02:47;4.65;84.21
71206;SHT31;58935;54.498;18.544;2024-01-27T01:05:15;4.64;84.21
71206;SHT31;58935;54.498;18.544;2024-01-27T01:07:41;4.63;84.16
71206;SHT31;58935;54.498;18.544;2024-01-27T01:10:06;4.63;84.19
71206;SHT31;58935;54.498;18.544;2024-01-27T01:12:32;4.61;84.02
71206;SHT31;58935;54.498;18.544;2024-01-27T01:14:58;4.61;83.98
71206;SHT31;58935;54.498;18.544;2024-01-27T01:17:23;4.59;83.97
71206;SHT31;58935;54.498;18.544;2024-01-27T01:19:51;4.58;84.10
71206;SHT31;58935;54.498;18.544;2024-01-27T01:22:17;4.57;83.96
71206;SHT31;58935;54.498;18.544;2024-01-27T01:24:42;4.56;83.78
71206;SHT31;58935;54.498;18.544;2024-01-27T01:27:07;4.55;83.87
71206;SHT31;58935;54.498;18.544;2024-01-27T01:29:33;4.54;83.87
71206;SHT31;58935;54.498;18.544;2024-01-27T01:31:58;4.52;83.99
71206;SHT31;58935;54.498;18.544;2024-01-27T01:34:26;4.49;83.99
71206;SHT31;58935;54.498;18.544;2024-01-27T01:36:52;4.47;83.89
71206;SHT31;58935;54.498;18.544;2024-01-27T01:39:19;4.45;84.04
71206;SHT31;58935;54.498;18.544;2024-01-27T01:41:44;4.43;84.21
71206;SHT31;58935;54.498;18.544;2024-01-27T01:44:12;4.39;84.33
71206;SHT31;58935;54.498;18.544;2024-01-27T01:46:37;4.37;84.41
71206;SHT31;58935;54.498;18.544;2024-01-27T01:49:03;4.33;84.38
71206;SHT31;58935;54.498;18.544;2024-01-27T01:51:29;4.31;84.49
71206;SHT31;58935;54.498;18.544;2024-01-27T01:53:57;4.28;84.45
71206;SHT31;58935;54.498;18.544;2024-01-27T01:56:26;4.27;84.31
71206;SHT31;58935;54.498;18.544;2024-01-27T01:58:53;4.25;84.31
71206;SHT31;58935;54.498;18.544;2024-01-27T02:01:23;4.23;84.42
71206;SHT31;58935;54.498;18.544;2024-01-27T02:03:52;4.20;84.40
71206;SHT31;58935;54.498;18.544;2024-01-27T02:06:19;4.17;84.53
71206;SHT31;58935;54.498;18.544;2024-01-27T02:08:46;4.16;84.46
71206;SHT31;58935;54.498;18.544;2024-01-27T02:11:11;4.13;84.35
71206;SHT31;58935;54.498;18.544;2024-01-27T02:13:37;4.12;84.39
71206;SHT31;58935;54.498;18.544;2024-01-27T02:16:03;4.10;84.46
71206;SHT31;58935;54.498;18.544;2024-01-27T02:18:29;4.06;84.50
71206;SHT31;58935;54.498;18.544;2024-01-27T02:20:54;4.05;84.69
71206;SHT31;58935;54.498;18.544;2024-01-27T02:23:20;4.03;84.56
71206;SHT31;58935;54.498;18.544;2024-01-27T02:25:45;4.00;84.64
71206;SHT31;58935;54.498;18.544;2024-01-27T02:28:11;3.97;84.68
71206;SHT31;58935;54.498;18.544;2024-01-27T02:30:38;3.94;84.66
71206;SHT31;58935;54.498;18.544;2024-01-27T02:33:04;3.94;84.58
71206;SHT31;58935;54.498;18.544;2024-01-27T02:35:30;3.93;84.60
71206;SHT31;58935;54.498;18.544;2024-01-27T02:37:58;3.93;84.55
71206;SHT31;58935;54.498;18.544;2024-01-27T02:40:25;3.92;84.62
71206;SHT31;58935;54.498;18.544;2024-01-27T02:42:51;3.90;84.70
71206;SHT31;58935;54.498;18.544;2024-01-27T02:45:17;3.86;84.70
71206;SHT31;58935;54.498;18.544;2024-01-27T02:47:42;3.84;84.76
71206;SHT31;58935;54.498;18.544;2024-01-27T02:50:13;3.84;84.82
71206;SHT31;58935;54.498;18.544;2024-01-27T02:52:39;3.81;84.72
71206;SHT31;58935;54.498;18.544;2024-01-27T02:55:04;3.78;84.61
71206;SHT31;58935;54.498;18.544;2024-01-27T02:57:31;3.76;84.54
71206;SHT31;58935;54.498;18.544;2024-01-27T02:59:56;3.74;84.57
71206;SHT31;58935;54.498;18.544;2024-01-27T03:02:22;3.70;84.59
71206;SHT31;58935;54.498;18.544;2024-01-27T03:04:47;3.66;84.69
71206;SHT31;58935;54.498;18.544;2024-01-27T03:07:13;3.64;84.87
71206;SHT31;58935;54.498;18.544;2024-01-27T03:09:38;3.62;84.92
71206;SHT31;58935;54.498;18.544;2024-01-27T03:12:06;3.62;84.94
71206;SHT31;58935;54.498;18.544;2024-01-27T03:14:32;3.61;85.11
71206;SHT31;58935;54.498;18.544;2024-01-27T03:16:58;3.60;85.20
71206;SHT31;58935;54.498;18.544;2024-01-27T03:19:23;3.60;85.30
71206;SHT31;58935;54.498;18.544;2024-01-27T03:21:49;3.61;85.31
71206;SHT31;58935;54.498;18.544;2024-01-27T03:24:15;3.62;85.30
71206;SHT31;58935;54.498;18.544;2024-01-27T03:26:40;3.63;85.37
71206;SHT31;58935;54.498;18.544;2024-01-27T03:29:08;3.64;85.43
71206;SHT31;58935;54.498;18.544;2024-01-27T03:31:33;3.63;85.54
71206;SHT31;58935;54.498;18.544;2024-01-27T03:33:59;3.64;85.52
71206;SHT31;58935;54.498;18.544;2024-01-27T03:36:26;3.63;85.34
71206;SHT31;58935;54.498;18.544;2024-01-27T03:38:55;3.64;85.30
71206;SHT31;58935;54.498;18.544;2024-01-27T03:41:23;3.64;85.31
71206;SHT31;58935;54.498;18.544;2024-01-27T03:43:54;3.64;85.32
71206;SHT31;58935;54.498;18.544;2024-01-27T03:46:19;3.65;85.38
71206;SHT31;58935;54.498;18.544;2024-01-27T03:48:47;3.65;85.46
71206;SHT31;58935;54.498;18.544;2024-01-27T03:51:12;3.66;85.50
71206;SHT31;58935;54.498;18.544;2024-01-27T03:53:38;3.67;85.51
71206;SHT31;58935;54.498;18.544;2024-01-27T03:56:03;3.69;85.61
71206;SHT31;58935;54.498;18.544;2024-01-27T03:58:30;3.69;85.59
71206;SHT31;58935;54.498;18.544;2024-01-27T04:00:56;3.72;85.59
71206;SHT31;58935;54.498;18.544;2024-01-27T04:03:22;3.73;85.60
71206;SHT31;58935;54.498;18.544;2024-01-27T04:05:48;3.75;85.61
71206;SHT31;58935;54.498;18.544;2024-01-27T04:08:14;3.74;85.55
71206;SHT31;58935;54.498;18.544;2024-01-27T04:10:39;3.77;85.60
71206;SHT31;58935;54.498;18.544;2024-01-27T04:13:05;3.78;85.60
71206;SHT31;58935;54.498;18.544;2024-01-27T04:15:32;3.79;85.50
71206;SHT31;58935;54.498;18.544;2024-01-27T04:18:03;3.77;85.50
71206;SHT31;58935;54.498;18.544;2024-01-27T04:20:32;3.75;85.62
71206;SHT31;58935;54.498;18.544;2024-01-27T04:23:01;3.76;85.68
71206;SHT31;58935;54.498;18.544;2024-01-27T04:25:27;3.76;85.70
71206;SHT31;58935;54.498;18.544;2024-01-27T04:27:53;3.75;85.94
71206;SHT31;58935;54.498;18.544;2024-01-27T04:30:20;3.74;86.11
71206;SHT31;58935;54.498;18.544;2024-01-27T04:32:46;3.73;86.16
71206;SHT31;58935;54.498;18.544;2024-01-27T04:35:14;3.71;86.15
71206;SHT31;58935;54.498;18.544;2024-01-27T04:37:41;3.70;86.27
71206;SHT31;58935;54.498;18.544;2024-01-27T04:40:09;3.69;86.32
71206;SHT31;58935;54.498;18.544;2024-01-27T04:42:38;3.69;86.36
71206;SHT31;58935;54.498;18.544;2024-01-27T04:45:04;3.69;86.33
71206;SHT31;58935;54.498;18.544;2024-01-27T04:47:31;3.67;86.52
71206;SHT31;58935;54.498;18.544;2024-01-27T04:49:57;3.64;86.27
71206;SHT31;58935;54.498;18.544;2024-01-27T04:52:22;3.61;86.27
71206;SHT31;58935;54.498;18.544;2024-01-27T04:54:49;3.58;86.36
71206;SHT31;58935;54.498;18.544;2024-01-27T04:57:17;3.54;86.44
71206;SHT31;58935;54.498;18.544;2024-01-27T04:59:43;3.52;86.54
71206;SHT31;58935;54.498;18.544;2024-01-27T05:02:11;3.48;86.61
71206;SHT31;58935;54.498;18.544;2024-01-27T05:04:37;3.47;86.61
71206;SHT31;58935;54.498;18.544;2024-01-27T05:07:03;3.43;86.47
71206;SHT31;58935;54.498;18.544;2024-01-27T05:09:29;3.40;86.98
71206;SHT31;58935;54.498;18.544;2024-01-27T05:11:55;3.40;87.20
71206;SHT31;58935;54.498;18.544;2024-01-27T05:14:20;3.36;87.23
71206;SHT31;58935;54.498;18.544;2024-01-27T05:16:46;3.33;87.21
71206;SHT31;58935;54.498;18.544;2024-01-27T05:19:11;3.31;87.20
71206;SHT31;58935;54.498;18.544;2024-01-27T05:21:38;3.28;86.98
71206;SHT31;58935;54.498;18.544;2024-01-27T05:24:03;3.24;86.61
71206;SHT31;58935;54.498;18.544;2024-01-27T05:26:30;3.20;86.67
71206;SHT31;58935;54.498;18.544;2024-01-27T05:28:55;3.16;86.79
71206;SHT31;58935;54.498;18.544;2024-01-27T05:31:21;3.15;86.97
71206;SHT31;58935;54.498;18.544;2024-01-27T05:33:47;3.14;87.12
71206;SHT31;58935;54.498;18.544;2024-01-27T05:36:12;3.13;87.35
71206;SHT31;58935;54.498;18.544;2024-01-27T05:38:38;3.13;87.54
71206;SHT31;58935;54.498;18.544;2024-01-27T05:41:03;3.15;87.76
71206;SHT31;58935;54.498;18.544;2024-01-27T05:43:29;3.14;88.03
71206;SHT31;58935;54.498;18.544;2024-01-27T05:45:55;3.17;88.31
71206;SHT31;58935;54.498;18.544;2024-01-27T05:48:21;3.19;88.54
71206;SHT31;58935;54.498;18.544;2024-01-27T05:53:22;3.24;88.94
71206;SHT31;58935;54.498;18.544;2024-01-27T05:55:48;3.26;89.34
71206;SHT31;58935;54.498;18.544;2024-01-27T05:58:13;3.28;89.58
71206;SHT31;58935;54.498;18.544;2024-01-27T06:00:39;3.29;89.71
71206;SHT31;58935;54.498;18.544;2024-01-27T06:03:04;3.31;89.86
71206;SHT31;58935;54.498;18.544;2024-01-27T06:05:30;3.31;89.96
71206;SHT31;58935;54.498;18.544;2024-01-27T06:07:55;3.31;90.12
71206;SHT31;58935;54.498;18.544;2024-01-27T06:10:21;3.30;90.16
71206;SHT31;58935;54.498;18.544;2024-01-27T06:12:52;3.30;90.07
71206;SHT31;58935;54.498;18.544;2024-01-27T06:15:17;3.32;90.00
71206;SHT31;58935;54.498;18.544;2024-01-27T06:17:43;3.32;89.90
71206;SHT31;58935;54.498;18.544;2024-01-27T06:20:08;3.30;89.83
71206;SHT31;58935;54.498;18.544;2024-01-27T06:22:34;3.27;89.60
71206;SHT31;58935;54.498;18.544;2024-01-27T06:25:00;3.26;89.47
71206;SHT31;58935;54.498;18.544;2024-01-27T06:27:25;3.25;89.19
71206;SHT31;58935;54.498;18.544;2024-01-27T06:29:53;3.25;88.99
71206;SHT31;58935;54.498;18.544;2024-01-27T06:32:18;3.25;88.67
71206;SHT31;58935;54.498;18.544;2024-01-27T06:34:43;3.25;88.39
71206;SHT31;58935;54.498;18.544;2024-01-27T06:37:11;3.25;88.31
71206;SHT31;58935;54.498;18.544;2024-01-27T06:39:39;3.23;88.48
71206;SHT31;58935;54.498;18.544;2024-01-27T06:42:04;3.21;88.64
71206;SHT31;58935;54.498;18.544;2024-01-27T06:44:30;3.17;88.50
71206;SHT31;58935;54.498;18.544;2024-01-27T06:46:55;3.13;88.59
71206;SHT31;58935;54.498;18.544;2024-01-27T06:49:21;3.10;88.73
71206;SHT31;58935;54.498;18.544;2024-01-27T06:51:46;3.07;88.81
71206;SHT31;58935;54.498;18.544;2024-01-27T06:54:14;3.02;89.16
71206;SHT31;58935;54.498;18.544;2024-01-27T06:56:40;2.98;89.27
71206;SHT31;58935;54.498;18.544;2024-01-27T06:59:05;2.96;89.22
71206;SHT31;58935;54.498;18.544;2024-01-27T07:01:33;2.94;89.43
71206;SHT31;58935;54.498;18.544;2024-01-27T07:03:59;2.92;89.51
71206;SHT31;58935;54.498;18.544;2024-01-27T07:06:24;2.89;89.54
71206;SHT31;58935;54.498;18.544;2024-01-27T07:08:50;2.88;89.51
71206;SHT31;58935;54.498;18.544;2024-01-27T07:11:16;2.87;89.72
71206;SHT31;58935;54.498;18.544;2024-01-27T07:13:41;2.86;89.86
71206;SHT31;58935;54.498;18.544;2024-01-27T07:16:09;2.85;89.77
71206;SHT31;58935;54.498;18.544;2024-01-27T07:18:34;2.85;89.86
71206;SHT31;58935;54.498;18.544;2024-01-27T07:21:01;2.86;90.07
71206;SHT31;58935;54.498;18.544;2024-01-27T07:23:29;2.86;90.08
71206;SHT31;58935;54.498;18.544;2024-01-27T07:25:54;2.86;90.24
71206;SHT31;58935;54.498;18.544;2024-01-27T07:28:28;2.86;90.44
71206;SHT31;58935;54.498;18.544;2024-01-27T07:30:53;2.88;90.54
71206;SHT31;58935;54.498;18.544;2024-01-27T07:33:21;2.88;90.33
71206;SHT31;58935;54.498;18.544;2024-01-27T07:35:47;2.89;90.26
71206;SHT31;58935;54.498;18.544;2024-01-27T07:38:15;2.90;90.19
71206;SHT31;58935;54.498;18.544;2024-01-27T07:40:40;2.92;90.16
71206;SHT31;58935;54.498;18.544;2024-01-27T07:43:06;2.90;90.02
71206;SHT31;58935;54.498;18.544;2024-01-27T07:45:31;2.89;90.07
71206;SHT31;58935;54.498;18.544;2024-01-27T07:47:57;2.89;90.08
71206;SHT31;58935;54.498;18.544;2024-01-27T07:50:26;2.89;89.87
71206;SHT31;58935;54.498;18.544;2024-01-27T07:52:52;2.89;89.82
71206;SHT31;58935;54.498;18.544;2024-01-27T07:55:19;2.88;89.68
71206;SHT31;58935;54.498;18.544;2024-01-27T07:57:45;2.88;89.54
71206;SHT31;58935;54.498;18.544;2024-01-27T08:00:10;2.89;89.51
71206;SHT31;58935;54.498;18.544;2024-01-27T08:02:36;2.88;89.35
71206;SHT31;58935;54.498;18.544;2024-01-27T08:05:02;2.88;89.33
71206;SHT31;58935;54.498;18.544;2024-01-27T08:07:29;2.89;89.33
71206;SHT31;58935;54.498;18.544;2024-01-27T08:09:55;2.87;89.09
71206;SHT31;58935;54.498;18.544;2024-01-27T08:12:22;2.85;89.02
71206;SHT31;58935;54.498;18.544;2024-01-27T08:14:48;2.80;88.91
71206;SHT31;58935;54.498;18.544;2024-01-27T08:17:14;2.79;88.85
71206;SHT31;58935;54.498;18.544;2024-01-27T08:19:39;2.75;88.83
71206;SHT31;58935;54.498;18.544;2024-01-27T08:22:05;2.73;88.83
71206;SHT31;58935;54.498;18.544;2024-01-27T08:24:30;2.68;88.73
71206;SHT31;58935;54.498;18.544;2024-01-27T08:26:56;2.64;88.78
71206;SHT31;58935;54.498;18.544;2024-01-27T08:29:23;2.62;88.88
71206;SHT31;58935;54.498;18.544;2024-01-27T08:31:49;2.59;88.84
71206;SHT31;58935;54.498;18.544;2024-01-27T08:34:16;2.56;88.82
71206;SHT31;58935;54.498;18.544;2024-01-27T08:36:42;2.53;88.81
71206;SHT31;58935;54.498;18.544;2024-01-27T08:39:07;2.48;88.76
71206;SHT31;58935;54.498;18.544;2024-01-27T08:41:33;2.43;88.86
71206;SHT31;58935;54.498;18.544;2024-01-27T08:43:59;2.40;88.90
71206;SHT31;58935;54.498;18.544;2024-01-27T08:46:25;2.39;89.03
71206;SHT31;58935;54.498;18.544;2024-01-27T08:48:50;2.40;89.08
71206;SHT31;58935;54.498;18.544;2024-01-27T08:51:15;2.40;88.95
71206;SHT31;58935;54.498;18.544;2024-01-27T08:53:42;2.39;88.83
71206;SHT31;58935;54.498;18.544;2024-01-27T08:56:14;2.37;88.68
71206;SHT31;58935;54.498;18.544;2024-01-27T08:58:41;2.35;88.60
71206;SHT31;58935;54.498;18.544;2024-01-27T09:01:13;2.32;88.68
71206;SHT31;58935;54.498;18.544;2024-01-27T09:03:40;2.28;88.65
71206;SHT31;58935;54.498;18.544;2024-01-27T09:06:06;2.25;88.54
71206;SHT31;58935;54.498;18.544;2024-01-27T09:08:33;2.21;88.54
71206;SHT31;58935;54.498;18.544;2024-01-27T09:11:02;2.19;88.59
71206;SHT31;58935;54.498;18.544;2024-01-27T09:13:29;2.14;88.60
71206;SHT31;58935;54.498;18.544;2024-01-27T09:15:55;2.12;88.64
71206;SHT31;58935;54.498;18.544;2024-01-27T09:18:22;2.12;88.81
71206;SHT31;58935;54.498;18.544;2024-01-27T09:20:48;2.12;88.98
71206;SHT31;58935;54.498;18.544;2024-01-27T09:23:16;2.15;89.04
71206;SHT31;58935;54.498;18.544;2024-01-27T09:25:41;2.19;89.03
71206;SHT31;58935;54.498;18.544;2024-01-27T09:28:07;2.24;89.00
71206;SHT31;58935;54.498;18.544;2024-01-27T09:30:35;2.27;88.94
71206;SHT31;58935;54.498;18.544;2024-01-27T09:33:00;2.33;88.93
71206;SHT31;58935;54.498;18.544;2024-01-27T09:35:25;2.40;88.87
71206;SHT31;58935;54.498;18.544;2024-01-27T09:37:51;2.45;88.70
71206;SHT31;58935;54.498;18.544;2024-01-27T09:40:16;2.50;88.48
71206;SHT31;58935;54.498;18.544;2024-01-27T09:42:44;2.56;88.23
71206;SHT31;58935;54.498;18.544;2024-01-27T09:45:18;2.62;88.01
71206;SHT31;58935;54.498;18.544;2024-01-27T09:47:46;2.64;87.86
71206;SHT31;58935;54.498;18.544;2024-01-27T09:50:12;2.67;87.76
71206;SHT31;58935;54.498;18.544;2024-01-27T09:52:40;2.71;87.66
71206;SHT31;58935;54.498;18.544;2024-01-27T09:55:07;2.75;87.49
71206;SHT31;58935;54.498;18.544;2024-01-27T09:57:33;2.78;87.27
71206;SHT31;58935;54.498;18.544;2024-01-27T10:00:03;2.83;87.17
71206;SHT31;58935;54.498;18.544;2024-01-27T10:02:36;2.87;86.90
71206;SHT31;58935;54.498;18.544;2024-01-27T10:05:07;2.92;86.69
71206;SHT31;58935;54.498;18.544;2024-01-27T10:07:34;2.97;86.28
71206;SHT31;58935;54.498;18.544;2024-01-27T10:10:00;3.03;86.06
71206;SHT31;58935;54.498;18.544;2024-01-27T10:12:28;3.04;85.53
71206;SHT31;58935;54.498;18.544;2024-01-27T10:14:54;3.07;85.16
71206;SHT31;58935;54.498;18.544;2024-01-27T10:17:20;3.12;85.31
71206;SHT31;58935;54.498;18.544;2024-01-27T10:22:26;3.19;84.15
71206;SHT31;58935;54.498;18.544;2024-01-27T10:24:52;3.23;84.16
71206;SHT31;58935;54.498;18.544;2024-01-27T10:27:21;3.27;83.78
71206;SHT31;58935;54.498;18.544;2024-01-27T10:32:19;3.33;83.78
71206;SHT31;58935;54.498;18.544;2024-01-27T10:34:44;3.35;83.68
71206;SHT31;58935;54.498;18.544;2024-01-27T10:37:11;3.35;83.35
71206;SHT31;58935;54.498;18.544;2024-01-27T10:39:38;3.36;83.50
71206;SHT31;58935;54.498;18.544;2024-01-27T10:42:04;3.40;83.73
71206;SHT31;58935;54.498;18.544;2024-01-27T10:44:32;3.42;83.49
71206;SHT31;58935;54.498;18.544;2024-01-27T10:47:01;3.42;83.66
71206;SHT31;58935;54.498;18.544;2024-01-27T10:49:30;3.43;83.66
71206;SHT31;58935;54.498;18.544;2024-01-27T10:52:02;3.44;83.82
71206;SHT31;58935;54.498;18.544;2024-01-27T10:54:37;3.45;84.05
71206;SHT31;58935;54.498;18.544;2024-01-27T10:57:06;3.45;84.16
71206;SHT31;58935;54.498;18.544;2024-01-27T10:59:34;3.48;84.33
71206;SHT31;58935;54.498;18.544;2024-01-27T11:02:02;3.48;84.32
71206;SHT31;58935;54.498;18.544;2024-01-27T11:04:30;3.48;83.90
71206;SHT31;58935;54.498;18.544;2024-01-27T11:07:00;3.49;83.88
71206;SHT31;58935;54.498;18.544;2024-01-27T11:09:27;3.51;83.87
71206;SHT31;58935;54.498;18.544;2024-01-27T11:11:55;3.53;83.70
71206;SHT31;58935;54.498;18.544;2024-01-27T11:14:22;3.55;82.85
71206;SHT31;58935;54.498;18.544;2024-01-27T11:16:47;3.59;82.83
71206;SHT31;58935;54.498;18.544;2024-01-27T11:19:13;3.61;82.27
71206;SHT31;58935;54.498;18.544;2024-01-27T11:21:43;3.63;81.89
71206;SHT31;58935;54.498;18.544;2024-01-27T11:24:13;3.66;81.81
71206;SHT31;58935;54.498;18.544;2024-01-27T11:26:40;3.67;81.47
71206;SHT31;58935;54.498;18.544;2024-01-27T11:29:07;3.68;81.20
71206;SHT31;58935;54.498;18.544;2024-01-27T11:31:35;3.71;80.81
71206;SHT31;58935;54.498;18.544;2024-01-27T11:34:00;3.71;80.29
71206;SHT31;58935;54.498;18.544;2024-01-27T11:36:26;3.72;79.86
71206;SHT31;58935;54.498;18.544;2024-01-27T11:38:53;3.75;79.78
71206;SHT31;58935;54.498;18.544;2024-01-27T11:41:24;3.78;79.89
71206;SHT31;58935;54.498;18.544;2024-01-27T11:43:52;3.80;79.84
71206;SHT31;58935;54.498;18.544;2024-01-27T11:46:20;3.82;79.97
71206;SHT31;58935;54.498;18.544;2024-01-27T11:48:46;3.82;79.82
71206;SHT31;58935;54.498;18.544;2024-01-27T11:51:11;3.85;79.81
71206;SHT31;58935;54.498;18.544;2024-01-27T11:53:37;3.88;79.93
71206;SHT31;58935;54.498;18.544;2024-01-27T11:56:04;3.89;79.68
71206;SHT31;58935;54.498;18.544;2024-01-27T11:58:31;3.88;79.42
71206;SHT31;58935;54.498;18.544;2024-01-27T12:00:59;3.89;79.60
71206;SHT31;58935;54.498;18.544;2024-01-27T12:03:25;3.87;79.71
71206;SHT31;58935;54.498;18.544;2024-01-27T12:05:53;3.86;79.66
71206;SHT31;58935;54.498;18.544;2024-01-27T12:08:19;3.86;79.77
71206;SHT31;58935;54.498;18.544;2024-01-27T12:10:44;3.88;79.79
71206;SHT31;58935;54.498;18.544;2024-01-27T12:13:10;3.88;79.32
71206;SHT31;58935;54.498;18.544;2024-01-27T12:15:36;3.88;78.80
71206;SHT31;58935;54.498;18.544;2024-01-27T12:18:01;3.89;78.73
71206;SHT31;58935;54.498;18.544;2024-01-27T12:20:30;3.90;78.68
71206;SHT31;58935;54.498;18.544;2024-01-27T12:25:28;3.92;78.58
71206;SHT31;58935;54.498;18.544;2024-01-27T12:27:53;3.91;78.26
71206;SHT31;58935;54.498;18.544;2024-01-27T12:30:20;3.93;78.33
71206;SHT31;58935;54.498;18.544;2024-01-27T12:32:46;3.94;77.99
71206;SHT31;58935;54.498;18.544;2024-01-27T12:35:13;3.97;77.67
71206;SHT31;58935;54.498;18.544;2024-01-27T12:37:39;4.00;77.51
71206;SHT31;58935;54.498;18.544;2024-01-27T12:40:20;4.03;77.07
71206;SHT31;58935;54.498;18.544;2024-01-27T12:42:47;4.07;77.10
71206;SHT31;58935;54.498;18.544;2024-01-27T12:45:16;4.10;77.15
71206;SHT31;58935;54.498;18.544;2024-01-27T12:47:46;4.14;77.01
71206;SHT31;58935;54.498;18.544;2024-01-27T12:50:11;4.17;76.73
71206;SHT31;58935;54.498;18.544;2024-01-27T12:52:39;4.23;76.71
71206;SHT31;58935;54.498;18.544;2024-01-27T12:55:05;4.26;76.44
71206;SHT31;58935;54.498;18.544;2024-01-27T12:57:35;4.30;76.43
71206;SHT31;58935;54.498;18.544;2024-01-27T13:00:01;4.33;76.07
71206;SHT31;58935;54.498;18.544;2024-01-27T13:02:34;4.35;75.96
71206;SHT31;58935;54.498;18.544;2024-01-27T13:05:00;4.38;75.92
71206;SHT31;58935;54.498;18.544;2024-01-27T13:07:25;4.39;75.60
71206;SHT31;58935;54.498;18.544;2024-01-27T13:09:51;4.41;75.00
71206;SHT31;58935;54.498;18.544;2024-01-27T13:12:16;4.41;75.04
71206;SHT31;58935;54.498;18.544;2024-01-27T13:14:42;4.44;75.30
71206;SHT31;58935;54.498;18.544;2024-01-27T13:17:10;4.46;75.23
71206;SHT31;58935;54.498;18.544;2024-01-27T13:19:35;4.49;75.31
71206;SHT31;58935;54.498;18.544;2024-01-27T13:22:01;4.52;75.24
71206;SHT31;58935;54.498;18.544;2024-01-27T13:24:27;4.51;74.65
71206;SHT31;58935;54.498;18.544;2024-01-27T13:26:53;4.53;74.96
71206;SHT31;58935;54.498;18.544;2024-01-27T13:29:18;4.54;74.85
71206;SHT31;58935;54.498;18.544;2024-01-27T13:31:46;4.54;74.80
71206;SHT31;58935;54.498;18.544;2024-01-27T13:34:12;4.55;75.02
71206;SHT31;58935;54.498;18.544;2024-01-27T13:36:40;4.57;74.87
71206;SHT31;58935;54.498;18.544;2024-01-27T13:39:05;4.57;74.36
71206;SHT31;58935;54.498;18.544;2024-01-27T13:41:31;4.55;74.40
71206;SHT31;58935;54.498;18.544;2024-01-27T13:43:57;4.54;74.71
71206;SHT31;58935;54.498;18.544;2024-01-27T13:46:24;4.53;74.36
71206;SHT31;58935;54.498;18.544;2024-01-27T13:48:52;4.49;74.10
71206;SHT31;58935;54.498;18.544;2024-01-27T13:51:18;4.46;74.18
71206;SHT31;58935;54.498;18.544;2024-01-27T13:53:43;4.43;74.35
71206;SHT31;58935;54.498;18.544;2024-01-27T13:56:12;4.42;74.41
71206;SHT31;58935;54.498;18.544;2024-01-27T13:58:38;4.41;74.45
71206;SHT31;58935;54.498;18.544;2024-01-27T14:01:04;4.40;74.38
71206;SHT31;58935;54.498;18.544;2024-01-27T14:03:33;4.36;73.91
71206;SHT31;58935;54.498;18.544;2024-01-27T14:06:02;4.33;73.94
71206;SHT31;58935;54.498;18.544;2024-01-27T14:08:31;4.31;74.09
71206;SHT31;58935;54.498;18.544;2024-01-27T14:10:56;4.29;73.94
71206;SHT31;58935;54.498;18.544;2024-01-27T14:13:22;4.27;74.00
71206;SHT31;58935;54.498;18.544;2024-01-27T14:15:50;4.26;73.87
71206;SHT31;58935;54.498;18.544;2024-01-27T14:18:15;4.25;73.81
71206;SHT31;58935;54.498;18.544;2024-01-27T14:20:46;4.23;73.80
71206;SHT31;58935;54.498;18.544;2024-01-27T14:23:13;4.20;73.84
71206;SHT31;58935;54.498;18.544;2024-01-27T14:25:40;4.20;74.01
71206;SHT31;58935;54.498;18.544;2024-01-27T14:28:06;4.19;74.19
71206;SHT31;58935;54.498;18.544;2024-01-27T14:30:34;4.17;74.20
71206;SHT31;58935;54.498;18.544;2024-01-27T14:33:02;4.14;74.07
71206;SHT31;58935;54.498;18.544;2024-01-27T14:35:27;4.13;74.08
71206;SHT31;58935;54.498;18.544;2024-01-27T14:37:55;4.13;74.07
71206;SHT31;58935;54.498;18.544;2024-01-27T14:40:22;4.10;74.04
71206;SHT31;58935;54.498;18.544;2024-01-27T14:42:51;4.07;74.06
71206;SHT31;58935;54.498;18.544;2024-01-27T14:45:17;4.06;74.18
71206;SHT31;58935;54.498;18.544;2024-01-27T14:47:42;4.05;74.26
71206;SHT31;58935;54.498;18.544;2024-01-27T14:50:08;4.02;74.21
71206;SHT31;58935;54.498;18.544;2024-01-27T14:52:34;3.98;74.19
71206;SHT31;58935;54.498;18.544;2024-01-27T14:55:00;3.96;74.28
71206;SHT31;58935;54.498;18.544;2024-01-27T14:57:25;3.93;74.43
71206;SHT31;58935;54.498;18.544;2024-01-27T14:59:54;3.90;74.55
71206;SHT31;58935;54.498;18.544;2024-01-27T15:02:19;3.88;74.60
71206;SHT31;58935;54.498;18.544;2024-01-27T15:04:44;3.86;74.77
71206;SHT31;58935;54.498;18.544;2024-01-27T15:07:11;3.83;74.78
71206;SHT31;58935;54.498;18.544;2024-01-27T15:09:40;3.81;74.81
71206;SHT31;58935;54.498;18.544;2024-01-27T15:12:06;3.79;74.94
71206;SHT31;58935;54.498;18.544;2024-01-27T15:14:35;3.77;74.94
71206;SHT31;58935;54.498;18.544;2024-01-27T15:17:00;3.76;74.87
71206;SHT31;58935;54.498;18.544;2024-01-27T15:19:26;3.75;74.72
71206;SHT31;58935;54.498;18.544;2024-01-27T15:21:54;3.74;74.73
71206;SHT31;58935;54.498;18.544;2024-01-27T15:24:19;3.74;74.67
71206;SHT31;58935;54.498;18.544;2024-01-27T15:26:45;3.73;74.59
71206;SHT31;58935;54.498;18.544;2024-01-27T15:29:10;3.72;74.55
71206;SHT31;58935;54.498;18.544;2024-01-27T15:31:37;3.70;74.67
71206;SHT31;58935;54.498;18.544;2024-01-27T15:34:05;3.69;74.80
71206;SHT31;58935;54.498;18.544;2024-01-27T15:36:33;3.68;74.93